createdAt,value
2022-09-05T00:00:02.082Z,49.99
2022-09-05T00:02:48.144Z,49.81
2022-09-05T00:05:48.384Z,49.92
2022-09-05T00:08:36.955Z,49.92
2022-09-05T00:11:39.344Z,49.79
2022-09-05T00:14:06.049Z,49.80
2022-09-05T00:16:55.897Z,49.86
2022-09-05T00:22:48.330Z,50.09
2022-09-05T00:24:25.587Z,50.03
2022-09-05T00:25:32.644Z,49.96
2022-09-05T00:28:25.144Z,49.78
2022-09-05T00:31:55.805Z,49.89
2022-09-05T00:34:02.267Z,50.05
2022-09-05T00:36:34.766Z,49.82
2022-09-05T00:39:04.704Z,49.95
2022-09-05T00:41:34.502Z,49.73
2022-09-05T00:44:02.648Z,50.02
2022-09-05T00:46:31.944Z,49.86
2022-09-05T00:49:09.156Z,49.90
2022-09-05T00:51:38.704Z,50.08
2022-09-05T00:54:40.482Z,49.85
2022-09-05T00:57:22.675Z,49.96
2022-09-05T01:00:12.585Z,49.80
2022-09-05T01:02:58.901Z,49.92
2022-09-05T01:05:39.158Z,49.82
2022-09-05T01:08:48.706Z,49.88
2022-09-05T01:11:20.888Z,49.88
2022-09-05T01:13:54.289Z,50.11
2022-09-05T01:16:24.749Z,49.88
2022-09-05T01:18:59.237Z,49.97
2022-09-05T01:21:49.403Z,49.92
2022-09-05T01:24:28.836Z,49.82
2022-09-05T01:27:42.258Z,49.67
2022-09-05T01:30:21.374Z,50.02
2022-09-05T01:32:53.193Z,49.98
2022-09-05T01:35:52.273Z,49.87
2022-09-05T01:38:35.266Z,50.31
2022-09-05T01:41:18.559Z,49.83
2022-09-05T01:44:05.259Z,49.85
2022-09-05T01:46:37.641Z,49.93
2022-09-05T01:49:11.206Z,49.93
2022-09-05T01:51:43.340Z,50.05
2022-09-05T01:54:24.293Z,49.92
2022-09-05T01:57:03.570Z,49.89
2022-09-05T01:59:40.092Z,49.94
2022-09-05T02:02:24.076Z,49.63
2022-09-05T02:05:03.666Z,49.99
2022-09-05T02:07:37.664Z,49.70
2022-09-05T02:10:35.388Z,49.94
2022-09-05T02:13:11.558Z,50.05
2022-09-05T02:15:45.202Z,49.98
2022-09-05T02:18:30.488Z,49.82
2022-09-05T02:20:59.890Z,50.16
2022-09-05T02:23:40.900Z,49.93
2022-09-05T02:26:14.299Z,49.74
2022-09-05T02:28:47.044Z,49.67
2022-09-05T02:31:21.043Z,49.81
2022-09-05T02:33:52.945Z,49.80
2022-09-05T02:36:33.574Z,49.75
2022-09-05T02:45:02.628Z,49.91
2022-09-05T02:45:09.111Z,49.95
2022-09-05T02:45:20.533Z,49.78
2022-09-05T02:47:48.930Z,50.00
2022-09-05T02:52:46.187Z,49.78
2022-09-05T02:57:35.415Z,49.74
2022-09-05T02:57:38.993Z,50.20
2022-09-05T02:59:10.306Z,49.84
2022-09-05T03:02:17.347Z,49.86
2022-09-05T03:04:56.655Z,50.04
2022-09-05T03:07:48.909Z,49.86
2022-09-05T03:10:34.626Z,49.89
2022-09-05T03:13:55.290Z,49.87
2022-09-05T03:16:50.283Z,49.74
2022-09-05T03:20:00.660Z,50.00
2022-09-05T03:22:56.886Z,49.95
2022-09-05T03:25:40.042Z,49.89
2022-09-05T03:28:32.430Z,49.94
2022-09-05T03:31:24.643Z,49.87
2022-09-05T03:34:09.104Z,49.92
2022-09-05T03:37:07.065Z,50.04
2022-09-05T03:40:09.167Z,50.03
2022-09-05T03:43:00.532Z,49.95
2022-09-05T03:45:49.440Z,49.89
2022-09-05T03:48:39.582Z,50.09
2022-09-05T03:56:22.271Z,49.90
2022-09-05T03:57:14.439Z,50.04
2022-09-05T03:57:53.916Z,50.16
2022-09-05T04:00:25.082Z,50.26
2022-09-05T04:08:05.819Z,50.03
2022-09-05T04:08:30.677Z,50.12
2022-09-05T04:08:48.828Z,50.05
2022-09-05T04:11:18.138Z,49.95
2022-09-05T04:13:50.124Z,49.94
2022-09-05T04:16:19.503Z,50.02
2022-09-05T04:18:49.193Z,50.05
2022-09-05T04:21:19.763Z,49.78
2022-09-05T04:23:52.398Z,50.12
2022-09-05T04:26:36.750Z,50.07
2022-09-05T04:29:15.132Z,49.88
2022-09-05T04:32:00.971Z,49.94
2022-09-05T04:34:43.638Z,49.88
2022-09-05T04:37:11.941Z,49.94
2022-09-05T04:39:40.073Z,49.92
2022-09-05T04:42:18.406Z,49.77
2022-09-05T04:44:49.376Z,49.97
2022-09-05T04:47:19.230Z,49.92
2022-09-05T04:49:49.691Z,49.83
2022-09-05T04:52:39.361Z,50.13
2022-09-05T04:55:08.259Z,50.18
2022-09-05T04:57:37.067Z,50.13
2022-09-05T05:06:02.649Z,49.81
2022-09-05T05:06:13.321Z,50.03
2022-09-05T05:06:13.898Z,49.98
2022-09-05T05:08:47.617Z,50.05
2022-09-05T05:17:10.907Z,50.04
2022-09-05T05:18:04.093Z,50.07
2022-09-05T05:18:14.997Z,49.88
2022-09-05T05:20:39.474Z,50.01
2022-09-05T05:22:39.564Z,49.98
2022-09-05T05:25:09.296Z,50.07
2022-09-05T05:27:40.335Z,50.03
2022-09-05T05:30:09.426Z,49.94
2022-09-05T05:32:46.102Z,49.99
2022-09-05T05:35:15.422Z,49.89
2022-09-05T05:37:45.493Z,49.91
2022-09-05T05:40:20.442Z,49.92
2022-09-05T05:42:48.469Z,49.95
2022-09-05T05:45:18.147Z,50.14
2022-09-05T05:47:47.974Z,50.30
2022-09-05T05:50:23.266Z,50.16
2022-09-05T05:53:11.258Z,50.40
2022-09-05T05:55:54.243Z,50.22
2022-09-05T05:58:32.895Z,50.61
2022-09-05T06:01:43.330Z,50.17
2022-09-05T06:04:50.040Z,50.13
2022-09-05T06:07:23.723Z,50.25
2022-09-05T06:14:55.184Z,50.19
2022-09-05T06:15:08.722Z,50.45
2022-09-05T06:17:14.305Z,49.97
2022-09-05T06:22:04.256Z,50.26
2022-09-05T06:23:36.804Z,50.43
2022-09-05T06:26:30.160Z,50.37
2022-09-05T06:29:03.727Z,50.37
2022-09-05T06:31:57.698Z,50.05
2022-09-05T06:34:59.905Z,50.48
2022-09-05T06:37:36.017Z,50.13
2022-09-05T06:40:12.449Z,50.32
2022-09-05T06:42:51.611Z,50.33
2022-09-05T06:45:28.914Z,50.20
2022-09-05T06:48:00.380Z,50.40
2022-09-05T06:50:48.229Z,50.41
2022-09-05T06:53:52.850Z,50.37
2022-09-05T06:56:54.970Z,50.42
2022-09-05T06:59:51.920Z,50.72
2022-09-05T07:02:50.007Z,50.56
2022-09-05T07:05:36.891Z,50.57
2022-09-05T07:08:29.864Z,50.64
2022-09-05T07:11:16.112Z,50.49
2022-09-05T07:13:50.993Z,50.59
2022-09-05T07:16:37.210Z,50.47
2022-09-05T07:19:14.299Z,50.33
2022-09-05T07:21:44.341Z,50.48
2022-09-05T07:24:13.745Z,50.55
2022-09-05T07:26:53.751Z,50.34
2022-09-05T07:29:24.730Z,50.63
2022-09-05T07:31:56.477Z,50.35
2022-09-05T07:34:26.385Z,50.51
2022-09-05T07:37:14.135Z,50.67
2022-09-05T07:39:45.938Z,50.58
2022-09-05T07:42:16.506Z,50.72
2022-09-05T07:44:47.197Z,50.71
2022-09-05T07:47:18.050Z,50.90
2022-09-05T07:50:14.017Z,50.72
2022-09-05T07:56:52.990Z,50.67
2022-09-05T07:56:59.940Z,50.91
2022-09-05T07:58:17.311Z,50.92
2022-09-05T08:00:46.040Z,51.00
2022-09-05T08:03:14.807Z,51.07
2022-09-05T08:05:43.829Z,51.10
2022-09-05T08:08:13.621Z,50.82
2022-09-05T08:11:25.744Z,51.18
2022-09-05T08:14:38.371Z,51.02
2022-09-05T08:16:43.273Z,51.01
2022-09-05T08:19:33.088Z,51.18
2022-09-05T08:22:01.185Z,51.04
2022-09-05T08:24:32.871Z,51.12
2022-09-05T08:27:03.445Z,50.94
2022-09-05T08:29:35.413Z,51.17
2022-09-05T08:32:08.612Z,51.13
2022-09-05T08:34:44.688Z,51.09
2022-09-05T08:37:15.162Z,51.06
2022-09-05T08:39:56.820Z,50.97
2022-09-05T08:42:42.659Z,51.08
2022-09-05T08:46:39.917Z,50.92
2022-09-05T08:48:50.048Z,51.00
2022-09-05T08:51:27.447Z,51.13
2022-09-05T08:54:24.053Z,51.02
2022-09-05T08:56:55.303Z,50.94
2022-09-05T08:59:32.880Z,50.88
2022-09-05T09:02:47.450Z,51.16
2022-09-05T09:05:22.350Z,51.02
2022-09-05T09:07:55.006Z,51.00
2022-09-05T09:10:42.405Z,51.00
2022-09-05T09:13:32.447Z,50.89
2022-09-05T09:16:05.106Z,51.02
2022-09-05T09:18:40.836Z,50.88
2022-09-05T09:21:24.430Z,50.84
2022-09-05T09:23:54.779Z,51.01
2022-09-05T09:26:24.534Z,50.66
2022-09-05T09:28:56.908Z,50.65
2022-09-05T09:31:40.422Z,50.52
2022-09-05T09:34:36.916Z,50.63
2022-09-05T09:37:50.628Z,50.51
2022-09-05T09:40:28.357Z,50.46
2022-09-05T09:43:05.237Z,50.41
2022-09-05T09:46:20.961Z,50.23
2022-09-05T09:49:22.526Z,49.99
2022-09-05T09:52:20.629Z,50.18
2022-09-05T09:55:17.468Z,50.09
2022-09-05T09:58:26.319Z,49.89
2022-09-05T10:00:56.481Z,50.22
2022-09-05T10:07:28.905Z,50.13
2022-09-05T10:10:36.258Z,49.99
2022-09-05T10:10:57.756Z,49.80
2022-09-05T10:13:08.176Z,49.72
2022-09-05T10:15:41.820Z,49.62
2022-09-05T10:18:41.156Z,49.63
2022-09-05T10:21:46.271Z,49.61
2022-09-05T10:24:43.127Z,49.64
2022-09-05T10:27:18.170Z,49.58
2022-09-05T10:29:48.616Z,49.58
2022-09-05T10:35:11.196Z,49.44
2022-09-05T10:35:22.381Z,49.67
2022-09-05T10:37:54.988Z,49.51
2022-09-05T10:40:24.146Z,49.62
2022-09-05T10:43:00.769Z,49.66
2022-09-05T10:45:38.848Z,49.74
2022-09-05T10:48:13.528Z,49.73
2022-09-05T10:50:44.004Z,49.55
2022-09-05T10:53:25.913Z,49.71
2022-09-05T10:56:03.494Z,49.64
2022-09-05T11:02:15.646Z,49.61
2022-09-05T11:02:27.745Z,49.68
2022-09-05T11:04:46.461Z,49.74
2022-09-05T11:07:29.189Z,49.67
2022-09-05T11:10:03.249Z,49.74
2022-09-05T11:12:34.528Z,49.73
2022-09-05T11:15:06.196Z,49.96
2022-09-05T11:17:38.949Z,49.86
2022-09-05T11:20:16.273Z,49.87
2022-09-05T11:23:04.380Z,49.86
2022-09-05T11:25:39.806Z,49.71
2022-09-05T11:28:13.822Z,49.97
2022-09-05T11:30:44.036Z,49.93
2022-09-05T11:37:54.681Z,49.89
2022-09-05T11:39:47.457Z,49.81
2022-09-05T11:40:02.120Z,49.70
2022-09-05T11:42:36.917Z,49.89
2022-09-05T11:45:29.628Z,49.85
2022-09-05T11:48:53.285Z,49.93
2022-09-05T11:52:00.256Z,49.96
2022-09-05T11:54:50.558Z,49.80
2022-09-05T11:57:34.372Z,49.88
2022-09-05T12:00:33.620Z,49.85
2022-09-05T12:03:57.802Z,49.88
2022-09-05T12:07:29.873Z,49.85
2022-09-05T12:09:58.336Z,49.80
2022-09-05T12:12:41.129Z,49.68
2022-09-05T12:15:26.854Z,49.84
2022-09-05T12:18:02.891Z,49.85
2022-09-05T12:20:37.519Z,49.76
2022-09-05T12:23:31.194Z,49.70
2022-09-05T12:27:42.034Z,49.96
2022-09-05T12:29:33.779Z,50.00
2022-09-05T12:33:47.991Z,49.88
2022-09-05T12:36:04.241Z,49.70
2022-09-05T12:40:00.930Z,49.81
2022-09-05T12:41:33.510Z,49.72
2022-09-05T12:44:39.324Z,49.90
2022-09-05T12:46:14.386Z,49.86
2022-09-05T12:48:54.439Z,49.80
2022-09-05T12:51:46.569Z,49.82
2022-09-05T12:54:24.795Z,49.87
2022-09-05T12:58:27.056Z,49.98
2022-09-05T13:03:01.867Z,49.81
2022-09-05T13:03:09.852Z,49.81
2022-09-05T13:05:47.074Z,49.85
2022-09-05T13:08:21.695Z,49.93
2022-09-05T13:14:52.528Z,49.85
2022-09-05T13:15:00.831Z,49.88
2022-09-05T13:16:33.001Z,49.79
2022-09-05T13:19:07.641Z,49.86
2022-09-05T13:21:37.256Z,49.83
2022-09-05T13:24:12.233Z,49.71
2022-09-05T13:26:42.037Z,49.81
2022-09-05T13:29:14.967Z,49.75
2022-09-05T13:37:53.838Z,49.63
2022-09-05T13:38:01.206Z,49.74
2022-09-05T13:38:19.481Z,49.57
2022-09-05T13:40:37.050Z,49.57
2022-09-05T13:43:09.099Z,49.71
2022-09-05T13:45:49.921Z,49.69
2022-09-05T13:49:24.236Z,49.68
2022-09-05T13:51:27.647Z,49.71
2022-09-05T13:54:19.657Z,49.68
2022-09-05T13:56:53.352Z,49.74
2022-09-05T13:59:24.177Z,49.83
2022-09-05T14:02:26.397Z,49.58
2022-09-05T14:05:19.459Z,49.67
2022-09-05T14:08:24.892Z,49.52
2022-09-05T14:11:07.302Z,49.59
2022-09-05T14:13:43.617Z,49.52
2022-09-05T14:16:15.122Z,49.56
2022-09-05T14:19:00.125Z,49.65
2022-09-05T14:21:28.137Z,49.53
2022-09-05T14:23:58.946Z,49.51
2022-09-05T14:26:32.393Z,49.43
2022-09-05T14:29:07.652Z,49.54
2022-09-05T14:37:35.356Z,49.37
2022-09-05T14:37:58.396Z,49.41
2022-09-05T14:38:04.124Z,49.34
2022-09-05T14:41:10.927Z,49.26
2022-09-05T14:44:10.208Z,49.18
2022-09-05T14:46:51.322Z,49.23
2022-09-05T14:49:54.013Z,49.18
2022-09-05T14:52:25.802Z,49.24
2022-09-05T15:02:42.157Z,49.19
2022-09-05T15:02:54.897Z,49.32
2022-09-05T15:06:32.985Z,49.22
2022-09-05T15:11:24.216Z,49.23
2022-09-05T15:12:23.371Z,49.06
2022-09-05T15:14:39.442Z,49.26
2022-09-05T15:17:07.509Z,49.17
2022-09-05T15:20:05.864Z,49.24
2022-09-05T15:22:37.382Z,49.14
2022-09-05T15:25:17.948Z,49.05
2022-09-05T15:27:46.639Z,48.98
2022-09-05T15:30:23.037Z,49.06
2022-09-05T15:33:13.928Z,49.05
2022-09-05T15:35:43.872Z,48.96
2022-09-05T15:38:24.252Z,48.90
2022-09-05T15:41:19.760Z,48.79
2022-09-05T15:43:58.400Z,48.86
2022-09-05T15:46:34.206Z,48.76
2022-09-05T15:49:03.977Z,48.93
2022-09-05T15:51:50.073Z,48.71
2022-09-05T15:54:35.993Z,48.70
2022-09-05T15:57:09.067Z,48.97
2022-09-05T15:59:49.168Z,48.82
2022-09-05T16:02:19.871Z,48.83
2022-09-05T16:08:49.389Z,48.87
2022-09-05T16:10:40.975Z,48.88
2022-09-05T16:10:57.870Z,48.89
2022-09-05T16:13:51.843Z,48.70
2022-09-05T16:22:51.188Z,48.80
2022-09-05T16:23:31.626Z,48.76
2022-09-05T16:23:38.137Z,48.81
2022-09-05T16:24:58.212Z,48.72
2022-09-05T16:27:46.991Z,48.52
2022-09-05T16:30:21.660Z,48.89
2022-09-05T16:32:51.011Z,48.45
2022-09-05T16:35:25.126Z,48.71
2022-09-05T16:37:57.234Z,48.55
2022-09-05T16:40:26.509Z,48.42
2022-09-05T16:42:58.210Z,48.46
2022-09-05T16:45:31.851Z,48.63
2022-09-05T16:48:24.688Z,48.64
2022-09-05T16:50:54.331Z,48.60
2022-09-05T16:53:32.130Z,48.78
2022-09-05T16:56:02.604Z,48.89
2022-09-05T16:58:32.930Z,48.60
2022-09-05T17:01:19.671Z,48.63
2022-09-05T17:03:53.983Z,48.81
2022-09-05T17:06:26.311Z,48.72
2022-09-05T17:09:09.571Z,48.83
2022-09-05T17:12:00.184Z,48.94
2022-09-05T17:14:35.082Z,48.94
2022-09-05T17:17:20.040Z,48.98
2022-09-05T17:20:05.949Z,48.99
2022-09-05T17:25:28.235Z,48.95
2022-09-05T17:29:45.518Z,48.94
2022-09-05T17:29:49.093Z,49.37
2022-09-05T17:31:53.536Z,49.13
2022-09-05T17:34:40.460Z,49.23
2022-09-05T17:37:20.845Z,49.15
2022-09-05T17:39:55.174Z,49.09
2022-09-05T17:42:32.511Z,49.40
2022-09-05T17:45:08.338Z,49.27
2022-09-05T17:47:47.366Z,49.47
2022-09-05T17:50:20.255Z,49.49
2022-09-05T17:53:26.062Z,49.57
2022-09-05T17:56:29.054Z,49.56
2022-09-05T17:59:07.959Z,49.68
2022-09-05T18:01:36.244Z,49.51
2022-09-05T18:04:17.636Z,49.59
2022-09-05T18:06:59.658Z,49.54
2022-09-05T18:10:14.789Z,49.86
2022-09-05T18:13:14.295Z,49.83
2022-09-05T18:16:13.044Z,49.84
2022-09-05T18:19:28.940Z,49.58
2022-09-05T18:21:48.477Z,49.88
2022-09-05T18:24:24.266Z,49.69
2022-09-05T18:27:11.342Z,49.69
2022-09-05T18:29:58.083Z,49.89
2022-09-05T18:32:40.971Z,49.82
2022-09-05T18:35:36.733Z,50.01
2022-09-05T18:38:50.093Z,50.02
2022-09-05T18:41:21.612Z,50.00
2022-09-05T18:44:13.172Z,49.97
2022-09-05T18:46:48.506Z,50.02
2022-09-05T18:50:25.582Z,50.03
2022-09-05T18:52:11.568Z,50.13
2022-09-05T18:54:43.017Z,50.18
2022-09-05T18:57:15.296Z,50.29
2022-09-05T18:59:57.051Z,50.27
2022-09-05T19:02:50.340Z,50.32
2022-09-05T19:05:18.296Z,50.63
2022-09-05T19:07:59.717Z,50.46
2022-09-05T19:10:35.990Z,50.55
2022-09-05T19:13:10.234Z,50.74
2022-09-05T19:15:48.020Z,50.76
2022-09-05T19:18:26.871Z,50.67
2022-09-05T19:21:13.571Z,50.67
2022-09-05T19:23:51.093Z,50.53
2022-09-05T19:26:20.642Z,50.54
2022-09-05T19:36:44.444Z,50.59
2022-09-05T19:36:47.219Z,50.35
2022-09-05T19:37:02.959Z,50.63
2022-09-05T19:37:29.593Z,50.41
2022-09-05T19:43:07.444Z,50.47
2022-09-05T19:47:41.504Z,50.40
2022-09-05T19:47:52.051Z,50.23
2022-09-05T19:48:34.388Z,50.38
2022-09-05T19:51:16.368Z,50.51
2022-09-05T19:53:47.056Z,50.60
2022-09-05T19:56:15.157Z,50.64
2022-09-05T19:58:44.709Z,50.56
2022-09-05T20:01:15.242Z,50.56
2022-09-05T20:03:44.413Z,50.67
2022-09-05T20:06:24.766Z,50.54
2022-09-05T20:09:09.068Z,50.66
2022-09-05T20:11:45.166Z,50.66
2022-09-05T20:14:20.623Z,50.72
2022-09-05T20:16:49.781Z,50.62
2022-09-05T20:19:28.517Z,50.67
2022-09-05T20:21:58.346Z,50.71
2022-09-05T20:24:27.868Z,50.70
2022-09-05T20:26:56.036Z,50.57
2022-09-05T20:29:41.519Z,50.82
2022-09-05T20:32:19.058Z,50.65
2022-09-05T20:39:07.049Z,50.51
2022-09-05T20:43:14.513Z,50.58
2022-09-05T20:43:22.293Z,50.70
2022-09-05T20:43:52.694Z,50.61
2022-09-05T20:50:44.298Z,50.54
2022-09-05T20:54:22.172Z,50.48
2022-09-05T20:54:23.019Z,50.50
2022-09-05T20:55:40.106Z,50.44
2022-09-05T20:58:11.577Z,50.54
2022-09-05T21:01:15.395Z,50.48
2022-09-05T21:03:36.575Z,50.50
2022-09-05T21:06:22.243Z,50.65
2022-09-05T21:08:50.831Z,50.63
2022-09-05T21:11:18.913Z,50.55
2022-09-05T21:13:52.316Z,50.53
2022-09-05T21:16:22.309Z,50.51
2022-09-05T21:18:52.186Z,50.74
2022-09-05T21:21:28.630Z,50.69
2022-09-05T21:24:15.822Z,50.52
2022-09-05T21:26:45.096Z,50.64
2022-09-05T21:29:16.409Z,50.80
2022-09-05T21:31:45.410Z,50.66
2022-09-05T21:34:28.058Z,50.68
2022-09-05T21:37:07.037Z,50.67
2022-09-05T21:39:37.656Z,50.63
2022-09-05T21:42:49.740Z,50.63
2022-09-05T21:47:38.390Z,50.61
2022-09-05T21:47:52.373Z,50.60
2022-09-05T21:50:31.566Z,50.50
2022-09-05T21:53:37.937Z,50.54
2022-09-05T21:59:25.344Z,50.59
2022-09-05T21:59:25.432Z,50.73
2022-09-05T22:01:51.506Z,50.54
2022-09-05T22:04:13.889Z,50.58
2022-09-05T22:06:44.855Z,50.52
2022-09-05T22:09:14.434Z,50.80
2022-09-05T22:11:42.723Z,50.62
2022-09-05T22:14:10.832Z,50.64
2022-09-05T22:16:44.796Z,50.72
2022-09-05T22:19:24.286Z,50.66
2022-09-05T22:21:56.063Z,50.58
2022-09-05T22:24:24.299Z,50.79
2022-09-05T22:27:11.861Z,50.51
2022-09-05T22:29:41.006Z,50.82
2022-09-05T22:32:09.262Z,50.63
2022-09-05T22:34:37.464Z,50.64
2022-09-05T22:37:07.038Z,50.71
2022-09-05T22:39:37.116Z,50.66
2022-09-05T22:42:10.852Z,50.64
2022-09-05T22:44:39.977Z,50.49
2022-09-05T22:47:08.541Z,50.55
2022-09-05T22:49:37.403Z,50.61
2022-09-05T22:52:08.436Z,50.62
2022-09-05T22:54:36.710Z,50.52
2022-09-05T22:57:04.973Z,50.79
2022-09-05T22:59:33.055Z,50.51
2022-09-05T23:02:01.276Z,50.52
2022-09-05T23:04:29.437Z,50.65
2022-09-05T23:06:57.632Z,50.56
2022-09-05T23:17:08.434Z,50.89
2022-09-05T23:19:36.540Z,50.84
2022-09-05T23:22:04.757Z,51.00
2022-09-05T23:24:32.741Z,51.11
2022-09-05T23:27:00.795Z,50.87
2022-09-05T23:29:28.809Z,50.90
2022-09-05T23:31:56.925Z,50.99
2022-09-05T23:34:26.896Z,50.81
2022-09-05T23:36:55.083Z,50.82
2022-09-05T23:39:23.218Z,50.78
2022-09-05T23:41:51.275Z,50.80
2022-09-05T23:44:19.401Z,50.89
2022-09-05T23:46:47.413Z,50.77
2022-09-05T23:49:15.424Z,50.66
2022-09-05T23:51:44.784Z,50.97
2022-09-05T23:54:12.807Z,50.79
2022-09-05T23:56:40.777Z,50.84
2022-09-05T23:59:08.855Z,50.65
